sensor_id;sensor_type;location;lat;lon;timestamp;P1;durP1;ratioP1;P2;durP2;ratioP2
68216;SDS011;55037;52.354;4.992;2023-03-14T00:00:15;14.43;;;2.40;;
68216;SDS011;55037;52.354;4.992;2023-03-14T00:02:43;14.02;;;2.33;;
68216;SDS011;55037;52.354;4.992;2023-03-14T00:05:10;9.73;;;2.15;;
68216;SDS011;55037;52.354;4.992;2023-03-14T00:07:38;11.95;;;2.42;;
68216;SDS011;55037;52.354;4.992;2023-03-14T00:10:07;9.80;;;2.20;;
68216;SDS011;55037;52.354;4.992;2023-03-14T00:12:36;12.67;;;3.53;;
68216;SDS011;55037;52.354;4.992;2023-03-14T00:15:04;9.65;;;2.10;;
68216;SDS011;55037;52.354;4.992;2023-03-14T00:17:34;10.15;;;2.03;;
68216;SDS011;55037;52.354;4.992;2023-03-14T00:20:03;11.35;;;1.95;;
68216;SDS011;55037;52.354;4.992;2023-03-14T00:22:36;10.23;;;2.30;;
68216;SDS011;55037;52.354;4.992;2023-03-14T00:25:05;8.20;;;2.10;;
68216;SDS011;55037;52.354;4.992;2023-03-14T00:27:34;8.80;;;1.70;;
68216;SDS011;55037;52.354;4.992;2023-03-14T00:30:02;12.52;;;2.40;;
68216;SDS011;55037;52.354;4.992;2023-03-14T00:32:30;16.88;;;2.35;;
68216;SDS011;55037;52.354;4.992;2023-03-14T00:35:01;9.48;;;2.10;;
68216;SDS011;55037;52.354;4.992;2023-03-14T00:37:29;8.67;;;1.90;;
68216;SDS011;55037;52.354;4.992;2023-03-14T00:39:56;10.15;;;1.73;;
68216;SDS011;55037;52.354;4.992;2023-03-14T00:42:25;9.23;;;2.47;;
68216;SDS011;55037;52.354;4.992;2023-03-14T00:44:52;9.43;;;1.92;;
68216;SDS011;55037;52.354;4.992;2023-03-14T00:47:19;4.65;;;1.77;;
68216;SDS011;55037;52.354;4.992;2023-03-14T00:49:47;9.13;;;2.37;;
68216;SDS011;55037;52.354;4.992;2023-03-14T00:52:14;9.65;;;2.20;;
68216;SDS011;55037;52.354;4.992;2023-03-14T00:54:41;10.38;;;1.80;;
68216;SDS011;55037;52.354;4.992;2023-03-14T00:57:08;7.45;;;2.28;;
68216;SDS011;55037;52.354;4.992;2023-03-14T00:59:36;10.02;;;2.15;;
68216;SDS011;55037;52.354;4.992;2023-03-14T01:02:03;9.53;;;2.10;;
68216;SDS011;55037;52.354;4.992;2023-03-14T01:04:30;8.27;;;1.85;;
68216;SDS011;55037;52.354;4.992;2023-03-14T01:06:58;7.07;;;2.65;;
68216;SDS011;55037;52.354;4.992;2023-03-14T01:09:25;10.18;;;2.13;;
68216;SDS011;55037;52.354;4.992;2023-03-14T01:11:52;12.95;;;2.35;;
68216;SDS011;55037;52.354;4.992;2023-03-14T01:14:19;11.73;;;1.87;;
68216;SDS011;55037;52.354;4.992;2023-03-14T01:16:46;9.00;;;1.70;;
68216;SDS011;55037;52.354;4.992;2023-03-14T01:19:14;6.18;;;1.55;;
68216;SDS011;55037;52.354;4.992;2023-03-14T01:21:41;9.38;;;1.90;;
68216;SDS011;55037;52.354;4.992;2023-03-14T01:24:10;7.38;;;2.08;;
68216;SDS011;55037;52.354;4.992;2023-03-14T01:26:38;8.53;;;1.70;;
68216;SDS011;55037;52.354;4.992;2023-03-14T01:29:06;12.63;;;2.45;;
68216;SDS011;55037;52.354;4.992;2023-03-14T01:31:36;10.07;;;2.05;;
68216;SDS011;55037;52.354;4.992;2023-03-14T01:34:04;11.88;;;2.03;;
68216;SDS011;55037;52.354;4.992;2023-03-14T01:36:31;11.02;;;1.55;;
68216;SDS011;55037;52.354;4.992;2023-03-14T01:39:01;17.80;;;2.03;;
68216;SDS011;55037;52.354;4.992;2023-03-14T01:41:29;11.20;;;1.52;;
68216;SDS011;55037;52.354;4.992;2023-03-14T01:43:58;11.52;;;2.25;;
68216;SDS011;55037;52.354;4.992;2023-03-14T01:51:46;16.00;;;1.70;;
68216;SDS011;55037;52.354;4.992;2023-03-14T01:54:39;16.63;;;2.47;;
68216;SDS011;55037;52.354;4.992;2023-03-14T02:00:04;16.05;;;2.92;;
68216;SDS011;55037;52.354;4.992;2023-03-14T02:02:46;10.93;;;2.10;;
68216;SDS011;55037;52.354;4.992;2023-03-14T02:05:26;12.80;;;2.13;;
68216;SDS011;55037;52.354;4.992;2023-03-14T02:08:09;20.95;;;2.63;;
68216;SDS011;55037;52.354;4.992;2023-03-14T02:10:47;11.98;;;1.98;;
68216;SDS011;55037;52.354;4.992;2023-03-14T02:13:18;11.40;;;1.92;;
68216;SDS011;55037;52.354;4.992;2023-03-14T02:15:59;10.75;;;2.22;;
68216;SDS011;55037;52.354;4.992;2023-03-14T02:18:52;12.30;;;3.10;;
68216;SDS011;55037;52.354;4.992;2023-03-14T02:21:43;10.00;;;1.60;;
68216;SDS011;55037;52.354;4.992;2023-03-14T02:24:23;14.68;;;2.42;;
68216;SDS011;55037;52.354;4.992;2023-03-14T02:29:45;10.73;;;2.15;;
68216;SDS011;55037;52.354;4.992;2023-03-14T02:32:19;13.30;;;2.37;;
68216;SDS011;55037;52.354;4.992;2023-03-14T02:34:56;10.77;;;2.30;;
68216;SDS011;55037;52.354;4.992;2023-03-14T02:37:31;7.97;;;2.10;;
68216;SDS011;55037;52.354;4.992;2023-03-14T02:40:20;11.63;;;2.22;;
68216;SDS011;55037;52.354;4.992;2023-03-14T02:42:50;8.77;;;1.73;;
68216;SDS011;55037;52.354;4.992;2023-03-14T02:47:52;16.00;;;2.13;;
68216;SDS011;55037;52.354;4.992;2023-03-14T02:50:25;9.88;;;2.47;;
68216;SDS011;55037;52.354;4.992;2023-03-14T02:52:56;8.88;;;2.08;;
68216;SDS011;55037;52.354;4.992;2023-03-14T02:55:23;8.13;;;2.22;;
68216;SDS011;55037;52.354;4.992;2023-03-14T02:57:57;11.90;;;2.07;;
68216;SDS011;55037;52.354;4.992;2023-03-14T03:00:24;10.68;;;2.03;;
68216;SDS011;55037;52.354;4.992;2023-03-14T03:02:52;12.48;;;2.45;;
68216;SDS011;55037;52.354;4.992;2023-03-14T03:05:20;11.85;;;2.65;;
68216;SDS011;55037;52.354;4.992;2023-03-14T03:07:47;6.88;;;1.80;;
68216;SDS011;55037;52.354;4.992;2023-03-14T03:10:15;9.47;;;2.10;;
68216;SDS011;55037;52.354;4.992;2023-03-14T03:12:42;7.40;;;2.08;;
68216;SDS011;55037;52.354;4.992;2023-03-14T03:15:10;8.90;;;2.08;;
68216;SDS011;55037;52.354;4.992;2023-03-14T03:17:38;8.45;;;2.28;;
68216;SDS011;55037;52.354;4.992;2023-03-14T03:20:05;5.53;;;2.35;;
68216;SDS011;55037;52.354;4.992;2023-03-14T03:22:36;6.10;;;1.83;;
68216;SDS011;55037;52.354;4.992;2023-03-14T03:25:04;8.70;;;2.28;;
68216;SDS011;55037;52.354;4.992;2023-03-14T03:27:33;7.50;;;2.00;;
68216;SDS011;55037;52.354;4.992;2023-03-14T03:30:02;8.20;;;1.95;;
68216;SDS011;55037;52.354;4.992;2023-03-14T03:32:32;6.82;;;1.80;;
68216;SDS011;55037;52.354;4.992;2023-03-14T03:35:01;6.50;;;1.93;;
68216;SDS011;55037;52.354;4.992;2023-03-14T03:37:30;7.80;;;2.25;;
68216;SDS011;55037;52.354;4.992;2023-03-14T03:39:58;10.00;;;2.10;;
68216;SDS011;55037;52.354;4.992;2023-03-14T03:42:27;12.85;;;3.25;;
68216;SDS011;55037;52.354;4.992;2023-03-14T03:44:54;7.07;;;2.20;;
68216;SDS011;55037;52.354;4.992;2023-03-14T03:47:22;12.57;;;1.90;;
68216;SDS011;55037;52.354;4.992;2023-03-14T03:49:50;7.57;;;2.28;;
68216;SDS011;55037;52.354;4.992;2023-03-14T03:52:17;9.95;;;2.60;;
68216;SDS011;55037;52.354;4.992;2023-03-14T03:54:45;6.32;;;1.90;;
68216;SDS011;55037;52.354;4.992;2023-03-14T03:57:12;9.48;;;2.00;;
68216;SDS011;55037;52.354;4.992;2023-03-14T03:59:40;8.53;;;2.20;;
68216;SDS011;55037;52.354;4.992;2023-03-14T04:02:07;9.77;;;2.55;;
68216;SDS011;55037;52.354;4.992;2023-03-14T04:04:35;12.52;;;2.30;;
68216;SDS011;55037;52.354;4.992;2023-03-14T04:07:02;7.93;;;1.65;;
68216;SDS011;55037;52.354;4.992;2023-03-14T04:09:30;3.40;;;1.63;;
68216;SDS011;55037;52.354;4.992;2023-03-14T04:12:08;7.93;;;2.20;;
68216;SDS011;55037;52.354;4.992;2023-03-14T04:14:54;4.57;;;1.80;;
68216;SDS011;55037;52.354;4.992;2023-03-14T04:17:21;10.10;;;2.42;;
68216;SDS011;55037;52.354;4.992;2023-03-14T04:19:49;11.52;;;2.78;;
68216;SDS011;55037;52.354;4.992;2023-03-14T04:22:20;7.43;;;1.77;;
68216;SDS011;55037;52.354;4.992;2023-03-14T04:24:51;10.20;;;2.43;;
68216;SDS011;55037;52.354;4.992;2023-03-14T04:27:20;10.13;;;2.00;;
68216;SDS011;55037;52.354;4.992;2023-03-14T04:29:48;12.60;;;2.45;;
68216;SDS011;55037;52.354;4.992;2023-03-14T04:32:19;9.15;;;2.30;;
68216;SDS011;55037;52.354;4.992;2023-03-14T04:34:47;9.13;;;2.47;;
68216;SDS011;55037;52.354;4.992;2023-03-14T04:37:14;6.50;;;2.33;;
68216;SDS011;55037;52.354;4.992;2023-03-14T04:39:43;12.15;;;2.50;;
68216;SDS011;55037;52.354;4.992;2023-03-14T04:42:25;15.07;;;3.45;;
68216;SDS011;55037;52.354;4.992;2023-03-14T04:44:53;5.38;;;3.03;;
68216;SDS011;55037;52.354;4.992;2023-03-14T04:47:23;10.25;;;3.53;;
68216;SDS011;55037;52.354;4.992;2023-03-14T04:49:51;12.27;;;4.23;;
68216;SDS011;55037;52.354;4.992;2023-03-14T04:52:19;10.98;;;3.40;;
68216;SDS011;55037;52.354;4.992;2023-03-14T04:54:46;10.75;;;4.60;;
68216;SDS011;55037;52.354;4.992;2023-03-14T04:57:14;17.38;;;5.22;;
68216;SDS011;55037;52.354;4.992;2023-03-14T04:59:41;11.18;;;3.60;;
68216;SDS011;55037;52.354;4.992;2023-03-14T05:02:24;12.87;;;3.23;;
68216;SDS011;55037;52.354;4.992;2023-03-14T05:05:12;10.45;;;2.70;;
68216;SDS011;55037;52.354;4.992;2023-03-14T05:08:04;9.25;;;2.47;;
68216;SDS011;55037;52.354;4.992;2023-03-14T05:10:37;7.00;;;2.05;;
68216;SDS011;55037;52.354;4.992;2023-03-14T05:13:23;12.25;;;2.90;;
68216;SDS011;55037;52.354;4.992;2023-03-14T05:16:06;10.23;;;2.57;;
68216;SDS011;55037;52.354;4.992;2023-03-14T05:18:47;10.30;;;2.58;;
68216;SDS011;55037;52.354;4.992;2023-03-14T05:21:37;11.95;;;3.38;;
68216;SDS011;55037;52.354;4.992;2023-03-14T05:24:04;8.85;;;2.88;;
68216;SDS011;55037;52.354;4.992;2023-03-14T05:26:51;8.98;;;3.05;;
68216;SDS011;55037;52.354;4.992;2023-03-14T05:29:36;9.57;;;3.33;;
68216;SDS011;55037;52.354;4.992;2023-03-14T05:32:22;12.95;;;3.72;;
68216;SDS011;55037;52.354;4.992;2023-03-14T05:35:28;12.63;;;3.50;;
68216;SDS011;55037;52.354;4.992;2023-03-14T05:38:12;8.48;;;3.30;;
68216;SDS011;55037;52.354;4.992;2023-03-14T05:41:14;9.98;;;3.17;;
68216;SDS011;55037;52.354;4.992;2023-03-14T05:43:58;11.37;;;3.73;;
68216;SDS011;55037;52.354;4.992;2023-03-14T05:46:42;11.77;;;3.50;;
68216;SDS011;55037;52.354;4.992;2023-03-14T05:49:36;15.07;;;3.72;;
68216;SDS011;55037;52.354;4.992;2023-03-14T05:52:14;7.75;;;2.22;;
68216;SDS011;55037;52.354;4.992;2023-03-14T05:55:04;3.92;;;1.38;;
68216;SDS011;55037;52.354;4.992;2023-03-14T05:57:58;2.57;;;1.10;;
68216;SDS011;55037;52.354;4.992;2023-03-14T06:00:45;5.10;;;1.10;;
68216;SDS011;55037;52.354;4.992;2023-03-14T06:03:23;3.20;;;1.30;;
68216;SDS011;55037;52.354;4.992;2023-03-14T06:05:51;4.68;;;1.23;;
68216;SDS011;55037;52.354;4.992;2023-03-14T06:08:21;6.60;;;1.20;;
68216;SDS011;55037;52.354;4.992;2023-03-14T06:10:50;3.60;;;1.00;;
68216;SDS011;55037;52.354;4.992;2023-03-14T06:13:20;4.97;;;1.45;;
68216;SDS011;55037;52.354;4.992;2023-03-14T06:15:48;3.45;;;1.20;;
68216;SDS011;55037;52.354;4.992;2023-03-14T06:18:15;4.70;;;1.20;;
68216;SDS011;55037;52.354;4.992;2023-03-14T06:20:42;2.65;;;1.05;;
68216;SDS011;55037;52.354;4.992;2023-03-14T06:23:14;6.60;;;1.77;;
68216;SDS011;55037;52.354;4.992;2023-03-14T06:25:41;4.40;;;1.25;;
68216;SDS011;55037;52.354;4.992;2023-03-14T06:28:08;5.22;;;1.60;;
68216;SDS011;55037;52.354;4.992;2023-03-14T06:30:36;5.78;;;1.38;;
68216;SDS011;55037;52.354;4.992;2023-03-14T06:33:03;7.57;;;1.88;;
68216;SDS011;55037;52.354;4.992;2023-03-14T06:35:30;4.73;;;1.33;;
68216;SDS011;55037;52.354;4.992;2023-03-14T06:37:57;4.97;;;1.33;;
68216;SDS011;55037;52.354;4.992;2023-03-14T06:40:25;2.75;;;0.93;;
68216;SDS011;55037;52.354;4.992;2023-03-14T06:43:18;7.13;;;1.23;;
68216;SDS011;55037;52.354;4.992;2023-03-14T06:45:46;5.00;;;1.35;;
68216;SDS011;55037;52.354;4.992;2023-03-14T06:48:13;3.53;;;1.47;;
68216;SDS011;55037;52.354;4.992;2023-03-14T06:50:48;2.70;;;1.00;;
68216;SDS011;55037;52.354;4.992;2023-03-14T06:53:17;4.78;;;1.48;;
68216;SDS011;55037;52.354;4.992;2023-03-14T06:55:45;3.53;;;1.15;;
68216;SDS011;55037;52.354;4.992;2023-03-14T06:58:14;6.40;;;1.25;;
68216;SDS011;55037;52.354;4.992;2023-03-14T07:00:44;4.10;;;0.87;;
68216;SDS011;55037;52.354;4.992;2023-03-14T07:03:15;7.32;;;1.20;;
68216;SDS011;55037;52.354;4.992;2023-03-14T07:05:47;3.92;;;1.20;;
68216;SDS011;55037;52.354;4.992;2023-03-14T07:08:15;6.68;;;1.40;;
68216;SDS011;55037;52.354;4.992;2023-03-14T07:10:42;2.40;;;0.90;;
68216;SDS011;55037;52.354;4.992;2023-03-14T07:13:09;4.43;;;1.10;;
68216;SDS011;55037;52.354;4.992;2023-03-14T07:15:51;4.82;;;1.33;;
68216;SDS011;55037;52.354;4.992;2023-03-14T07:18:19;5.97;;;1.23;;
68216;SDS011;55037;52.354;4.992;2023-03-14T07:20:46;7.10;;;1.15;;
68216;SDS011;55037;52.354;4.992;2023-03-14T07:23:17;3.97;;;1.13;;
68216;SDS011;55037;52.354;4.992;2023-03-14T07:25:49;7.03;;;1.50;;
68216;SDS011;55037;52.354;4.992;2023-03-14T07:28:19;7.35;;;1.25;;
68216;SDS011;55037;52.354;4.992;2023-03-14T07:30:49;7.18;;;1.23;;
68216;SDS011;55037;52.354;4.992;2023-03-14T07:33:22;2.67;;;1.00;;
68216;SDS011;55037;52.354;4.992;2023-03-14T07:35:49;5.20;;;1.23;;
68216;SDS011;55037;52.354;4.992;2023-03-14T07:38:17;12.97;;;1.37;;
68216;SDS011;55037;52.354;4.992;2023-03-14T07:41:07;4.53;;;1.33;;
68216;SDS011;55037;52.354;4.992;2023-03-14T07:43:40;8.60;;;1.92;;
68216;SDS011;55037;52.354;4.992;2023-03-14T07:46:07;5.10;;;1.10;;
68216;SDS011;55037;52.354;4.992;2023-03-14T07:48:34;11.40;;;1.10;;
68216;SDS011;55037;52.354;4.992;2023-03-14T07:51:02;18.27;;;1.47;;
68216;SDS011;55037;52.354;4.992;2023-03-14T07:53:29;4.60;;;0.88;;
68216;SDS011;55037;52.354;4.992;2023-03-14T07:55:56;12.52;;;1.35;;
68216;SDS011;55037;52.354;4.992;2023-03-14T07:58:24;9.88;;;1.40;;
68216;SDS011;55037;52.354;4.992;2023-03-14T08:00:51;8.75;;;1.65;;
68216;SDS011;55037;52.354;4.992;2023-03-14T08:03:19;4.60;;;1.20;;
68216;SDS011;55037;52.354;4.992;2023-03-14T08:05:47;9.90;;;1.40;;
68216;SDS011;55037;52.354;4.992;2023-03-14T08:08:16;8.38;;;1.35;;
68216;SDS011;55037;52.354;4.992;2023-03-14T08:10:43;4.55;;;1.08;;
68216;SDS011;55037;52.354;4.992;2023-03-14T08:13:11;6.35;;;1.13;;
68216;SDS011;55037;52.354;4.992;2023-03-14T08:15:38;9.03;;;1.27;;
68216;SDS011;55037;52.354;4.992;2023-03-14T08:18:06;9.30;;;1.00;;
68216;SDS011;55037;52.354;4.992;2023-03-14T08:20:33;8.52;;;1.10;;
68216;SDS011;55037;52.354;4.992;2023-03-14T08:23:00;4.25;;;1.00;;
68216;SDS011;55037;52.354;4.992;2023-03-14T08:25:28;5.30;;;1.30;;
68216;SDS011;55037;52.354;4.992;2023-03-14T08:27:55;12.60;;;1.50;;
68216;SDS011;55037;52.354;4.992;2023-03-14T08:30:23;6.40;;;1.27;;
68216;SDS011;55037;52.354;4.992;2023-03-14T08:32:51;6.68;;;1.90;;
68216;SDS011;55037;52.354;4.992;2023-03-14T08:35:18;8.10;;;1.23;;
68216;SDS011;55037;52.354;4.992;2023-03-14T08:37:45;6.55;;;1.65;;
68216;SDS011;55037;52.354;4.992;2023-03-14T08:40:13;12.27;;;2.07;;
68216;SDS011;55037;52.354;4.992;2023-03-14T08:42:41;10.30;;;1.77;;
68216;SDS011;55037;52.354;4.992;2023-03-14T08:45:08;11.90;;;1.75;;
68216;SDS011;55037;52.354;4.992;2023-03-14T08:47:37;18.45;;;2.05;;
68216;SDS011;55037;52.354;4.992;2023-03-14T08:50:04;13.35;;;2.03;;
68216;SDS011;55037;52.354;4.992;2023-03-14T08:52:33;12.50;;;1.83;;
68216;SDS011;55037;52.354;4.992;2023-03-14T08:55:00;12.82;;;2.00;;
68216;SDS011;55037;52.354;4.992;2023-03-14T08:57:28;10.05;;;1.98;;
68216;SDS011;55037;52.354;4.992;2023-03-14T08:59:55;17.38;;;2.55;;
68216;SDS011;55037;52.354;4.992;2023-03-14T09:02:24;15.98;;;2.78;;
68216;SDS011;55037;52.354;4.992;2023-03-14T09:04:52;13.33;;;2.07;;
68216;SDS011;55037;52.354;4.992;2023-03-14T09:07:19;15.43;;;2.05;;
68216;SDS011;55037;52.354;4.992;2023-03-14T09:09:47;13.45;;;1.83;;
68216;SDS011;55037;52.354;4.992;2023-03-14T09:12:14;20.25;;;2.72;;
68216;SDS011;55037;52.354;4.992;2023-03-14T09:14:41;21.23;;;2.65;;
68216;SDS011;55037;52.354;4.992;2023-03-14T09:17:08;18.43;;;2.20;;
68216;SDS011;55037;52.354;4.992;2023-03-14T09:19:36;11.48;;;1.75;;
68216;SDS011;55037;52.354;4.992;2023-03-14T09:22:03;17.45;;;2.78;;
68216;SDS011;55037;52.354;4.992;2023-03-14T09:24:30;17.83;;;2.40;;
68216;SDS011;55037;52.354;4.992;2023-03-14T09:26:57;16.02;;;2.22;;
68216;SDS011;55037;52.354;4.992;2023-03-14T09:29:25;17.03;;;1.90;;
68216;SDS011;55037;52.354;4.992;2023-03-14T09:31:52;15.93;;;2.00;;
68216;SDS011;55037;52.354;4.992;2023-03-14T09:34:19;15.45;;;2.63;;
68216;SDS011;55037;52.354;4.992;2023-03-14T09:36:47;12.02;;;2.00;;
68216;SDS011;55037;52.354;4.992;2023-03-14T09:39:14;11.93;;;2.80;;
68216;SDS011;55037;52.354;4.992;2023-03-14T09:41:44;13.77;;;2.43;;
68216;SDS011;55037;52.354;4.992;2023-03-14T09:44:24;18.42;;;2.92;;
68216;SDS011;55037;52.354;4.992;2023-03-14T09:46:57;13.15;;;2.50;;
68216;SDS011;55037;52.354;4.992;2023-03-14T09:49:31;24.20;;;3.28;;
68216;SDS011;55037;52.354;4.992;2023-03-14T09:52:10;16.58;;;2.42;;
68216;SDS011;55037;52.354;4.992;2023-03-14T09:54:43;20.63;;;2.63;;
68216;SDS011;55037;52.354;4.992;2023-03-14T09:57:15;17.55;;;2.42;;
68216;SDS011;55037;52.354;4.992;2023-03-14T09:59:45;18.70;;;2.85;;
68216;SDS011;55037;52.354;4.992;2023-03-14T10:02:19;19.15;;;3.38;;
68216;SDS011;55037;52.354;4.992;2023-03-14T10:04:49;20.67;;;3.42;;
68216;SDS011;55037;52.354;4.992;2023-03-14T10:07:19;14.27;;;2.43;;
68216;SDS011;55037;52.354;4.992;2023-03-14T10:09:51;23.67;;;3.42;;
68216;SDS011;55037;52.354;4.992;2023-03-14T10:12:19;17.70;;;2.78;;
68216;SDS011;55037;52.354;4.992;2023-03-14T10:14:56;11.95;;;2.30;;
68216;SDS011;55037;52.354;4.992;2023-03-14T10:17:28;21.60;;;3.38;;
68216;SDS011;55037;52.354;4.992;2023-03-14T10:19:57;18.03;;;2.73;;
68216;SDS011;55037;52.354;4.992;2023-03-14T10:22:30;18.52;;;2.97;;
68216;SDS011;55037;52.354;4.992;2023-03-14T10:25:03;21.45;;;2.80;;
68216;SDS011;55037;52.354;4.992;2023-03-14T10:27:34;15.63;;;2.47;;
68216;SDS011;55037;52.354;4.992;2023-03-14T10:30:06;18.60;;;2.70;;
68216;SDS011;55037;52.354;4.992;2023-03-14T10:32:53;18.97;;;2.73;;
68216;SDS011;55037;52.354;4.992;2023-03-14T10:35:21;15.85;;;2.58;;
68216;SDS011;55037;52.354;4.992;2023-03-14T10:37:55;16.08;;;2.60;;
68216;SDS011;55037;52.354;4.992;2023-03-14T10:40:31;23.38;;;4.10;;
68216;SDS011;55037;52.354;4.992;2023-03-14T10:43:07;15.43;;;2.97;;
68216;SDS011;55037;52.354;4.992;2023-03-14T10:45:42;11.73;;;2.63;;
68216;SDS011;55037;52.354;4.992;2023-03-14T10:53:24;17.55;;;2.92;;
68216;SDS011;55037;52.354;4.992;2023-03-14T10:55:55;12.75;;;2.58;;
68216;SDS011;55037;52.354;4.992;2023-03-14T10:58:27;15.10;;;2.63;;
68216;SDS011;55037;52.354;4.992;2023-03-14T11:03:54;12.18;;;2.22;;
68216;SDS011;55037;52.354;4.992;2023-03-14T11:09:10;9.82;;;2.45;;
68216;SDS011;55037;52.354;4.992;2023-03-14T11:11:58;11.30;;;2.57;;
68216;SDS011;55037;52.354;4.992;2023-03-14T11:14:38;11.05;;;2.13;;
68216;SDS011;55037;52.354;4.992;2023-03-14T11:22:49;12.73;;;2.97;;
68216;SDS011;55037;52.354;4.992;2023-03-14T11:31:02;9.75;;;2.60;;
68216;SDS011;55037;52.354;4.992;2023-03-14T11:36:19;11.32;;;2.42;;
68216;SDS011;55037;52.354;4.992;2023-03-14T11:38:50;8.23;;;2.43;;
68216;SDS011;55037;52.354;4.992;2023-03-14T11:44:18;9.23;;;2.63;;
68216;SDS011;55037;52.354;4.992;2023-03-14T11:46:48;15.07;;;2.30;;
68216;SDS011;55037;52.354;4.992;2023-03-14T11:49:34;8.27;;;1.98;;
68216;SDS011;55037;52.354;4.992;2023-03-14T11:52:10;6.93;;;1.77;;
68216;SDS011;55037;52.354;4.992;2023-03-14T11:54:43;8.27;;;2.10;;
68216;SDS011;55037;52.354;4.992;2023-03-14T11:57:18;8.43;;;2.05;;
68216;SDS011;55037;52.354;4.992;2023-03-14T11:59:50;7.78;;;2.00;;
68216;SDS011;55037;52.354;4.992;2023-03-14T12:10:17;11.10;;;2.53;;
68216;SDS011;55037;52.354;4.992;2023-03-14T12:12:44;6.93;;;1.88;;
68216;SDS011;55037;52.354;4.992;2023-03-14T12:15:18;8.55;;;2.47;;
68216;SDS011;55037;52.354;4.992;2023-03-14T12:17:53;10.23;;;2.23;;
68216;SDS011;55037;52.354;4.992;2023-03-14T12:20:22;7.07;;;2.35;;
68216;SDS011;55037;52.354;4.992;2023-03-14T12:25:20;6.35;;;1.75;;
68216;SDS011;55037;52.354;4.992;2023-03-14T12:33:35;11.20;;;1.85;;
68216;SDS011;55037;52.354;4.992;2023-03-14T12:35:52;6.18;;;1.83;;
68216;SDS011;55037;52.354;4.992;2023-03-14T12:43:52;6.53;;;1.50;;
68216;SDS011;55037;52.354;4.992;2023-03-14T12:46:26;6.35;;;1.48;;
68216;SDS011;55037;52.354;4.992;2023-03-14T12:48:55;11.32;;;2.38;;
68216;SDS011;55037;52.354;4.992;2023-03-14T12:51:36;6.35;;;1.95;;
68216;SDS011;55037;52.354;4.992;2023-03-14T12:54:19;6.90;;;1.95;;
68216;SDS011;55037;52.354;4.992;2023-03-14T12:57:23;9.73;;;1.63;;
68216;SDS011;55037;52.354;4.992;2023-03-14T13:02:44;11.77;;;2.13;;
68216;SDS011;55037;52.354;4.992;2023-03-14T13:13:17;6.88;;;1.90;;
68216;SDS011;55037;52.354;4.992;2023-03-14T13:15:48;10.50;;;2.13;;
68216;SDS011;55037;52.354;4.992;2023-03-14T13:18:39;8.80;;;2.00;;
68216;SDS011;55037;52.354;4.992;2023-03-14T13:21:12;7.28;;;2.30;;
68216;SDS011;55037;52.354;4.992;2023-03-14T13:23:56;12.03;;;2.03;;
68216;SDS011;55037;52.354;4.992;2023-03-14T13:26:32;9.48;;;1.60;;
68216;SDS011;55037;52.354;4.992;2023-03-14T13:29:08;6.35;;;1.67;;
68216;SDS011;55037;52.354;4.992;2023-03-14T13:31:48;5.25;;;1.77;;
68216;SDS011;55037;52.354;4.992;2023-03-14T13:34:37;8.77;;;2.08;;
68216;SDS011;55037;52.354;4.992;2023-03-14T13:37:13;5.77;;;1.60;;
68216;SDS011;55037;52.354;4.992;2023-03-14T13:39:42;7.68;;;1.80;;
68216;SDS011;55037;52.354;4.992;2023-03-14T13:42:15;6.18;;;1.75;;
68216;SDS011;55037;52.354;4.992;2023-03-14T13:44:43;9.60;;;2.22;;
68216;SDS011;55037;52.354;4.992;2023-03-14T13:47:12;10.00;;;2.15;;
68216;SDS011;55037;52.354;4.992;2023-03-14T13:49:43;5.07;;;1.23;;
68216;SDS011;55037;52.354;4.992;2023-03-14T13:52:24;8.35;;;1.83;;
68216;SDS011;55037;52.354;4.992;2023-03-14T13:54:56;4.90;;;1.30;;
68216;SDS011;55037;52.354;4.992;2023-03-14T13:57:25;5.35;;;1.40;;
68216;SDS011;55037;52.354;4.992;2023-03-14T14:00:27;4.82;;;1.88;;
68216;SDS011;55037;52.354;4.992;2023-03-14T14:02:48;7.23;;;1.57;;
68216;SDS011;55037;52.354;4.992;2023-03-14T14:05:16;7.97;;;1.70;;
68216;SDS011;55037;52.354;4.992;2023-03-14T14:07:43;6.32;;;1.50;;
68216;SDS011;55037;52.354;4.992;2023-03-14T14:10:11;7.43;;;1.60;;
68216;SDS011;55037;52.354;4.992;2023-03-14T14:12:42;7.43;;;2.05;;
68216;SDS011;55037;52.354;4.992;2023-03-14T14:15:21;6.97;;;1.47;;
68216;SDS011;55037;52.354;4.992;2023-03-14T14:17:53;5.63;;;1.38;;
68216;SDS011;55037;52.354;4.992;2023-03-14T14:23:02;4.10;;;1.33;;
68216;SDS011;55037;52.354;4.992;2023-03-14T14:25:32;9.75;;;1.90;;
68216;SDS011;55037;52.354;4.992;2023-03-14T14:28:13;6.23;;;1.47;;
68216;SDS011;55037;52.354;4.992;2023-03-14T14:33:29;6.05;;;1.50;;
68216;SDS011;55037;52.354;4.992;2023-03-14T14:36:12;9.05;;;1.60;;
68216;SDS011;55037;52.354;4.992;2023-03-14T14:38:51;13.70;;;1.40;;
68216;SDS011;55037;52.354;4.992;2023-03-14T14:41:20;6.53;;;1.80;;
68216;SDS011;55037;52.354;4.992;2023-03-14T14:43:48;5.18;;;1.50;;
68216;SDS011;55037;52.354;4.992;2023-03-14T14:46:16;7.20;;;1.60;;
68216;SDS011;55037;52.354;4.992;2023-03-14T14:48:45;7.15;;;1.63;;
68216;SDS011;55037;52.354;4.992;2023-03-14T14:51:22;8.90;;;1.75;;
68216;SDS011;55037;52.354;4.992;2023-03-14T14:54:04;6.67;;;1.23;;
68216;SDS011;55037;52.354;4.992;2023-03-14T14:56:37;5.22;;;1.50;;
68216;SDS011;55037;52.354;4.992;2023-03-14T14:59:06;9.18;;;1.83;;
68216;SDS011;55037;52.354;4.992;2023-03-14T15:01:45;7.57;;;1.50;;
68216;SDS011;55037;52.354;4.992;2023-03-14T15:04:14;7.13;;;1.40;;
68216;SDS011;55037;52.354;4.992;2023-03-14T15:06:42;6.90;;;1.20;;
68216;SDS011;55037;52.354;4.992;2023-03-14T15:09:12;8.93;;;1.83;;
68216;SDS011;55037;52.354;4.992;2023-03-14T15:11:39;6.35;;;1.58;;
68216;SDS011;55037;52.354;4.992;2023-03-14T15:14:06;7.25;;;1.52;;
68216;SDS011;55037;52.354;4.992;2023-03-14T15:16:34;6.00;;;1.60;;
68216;SDS011;55037;52.354;4.992;2023-03-14T15:19:03;8.23;;;1.77;;
68216;SDS011;55037;52.354;4.992;2023-03-14T15:21:51;8.15;;;1.52;;
68216;SDS011;55037;52.354;4.992;2023-03-14T15:24:19;5.40;;;1.80;;
68216;SDS011;55037;52.354;4.992;2023-03-14T15:26:47;9.85;;;1.88;;
68216;SDS011;55037;52.354;4.992;2023-03-14T15:29:14;9.80;;;1.70;;
68216;SDS011;55037;52.354;4.992;2023-03-14T15:31:41;4.33;;;1.23;;
68216;SDS011;55037;52.354;4.992;2023-03-14T15:34:10;7.22;;;1.30;;
68216;SDS011;55037;52.354;4.992;2023-03-14T15:36:37;8.35;;;1.80;;
68216;SDS011;55037;52.354;4.992;2023-03-14T15:39:05;10.25;;;1.35;;
68216;SDS011;55037;52.354;4.992;2023-03-14T15:41:33;8.55;;;1.50;;
68216;SDS011;55037;52.354;4.992;2023-03-14T15:44:01;10.53;;;1.93;;
68216;SDS011;55037;52.354;4.992;2023-03-14T15:46:28;10.65;;;2.03;;
68216;SDS011;55037;52.354;4.992;2023-03-14T15:48:57;10.20;;;1.45;;
68216;SDS011;55037;52.354;4.992;2023-03-14T15:51:24;7.57;;;1.40;;
68216;SDS011;55037;52.354;4.992;2023-03-14T15:53:51;4.88;;;1.25;;
68216;SDS011;55037;52.354;4.992;2023-03-14T15:56:19;7.17;;;1.60;;
68216;SDS011;55037;52.354;4.992;2023-03-14T15:58:46;11.02;;;1.50;;
68216;SDS011;55037;52.354;4.992;2023-03-14T16:01:14;8.45;;;1.63;;
68216;SDS011;55037;52.354;4.992;2023-03-14T16:03:46;8.27;;;1.35;;
68216;SDS011;55037;52.354;4.992;2023-03-14T16:06:15;4.25;;;1.20;;
68216;SDS011;55037;52.354;4.992;2023-03-14T16:08:42;9.17;;;1.83;;
68216;SDS011;55037;52.354;4.992;2023-03-14T16:11:10;5.90;;;1.45;;
68216;SDS011;55037;52.354;4.992;2023-03-14T16:13:39;4.53;;;1.48;;
68216;SDS011;55037;52.354;4.992;2023-03-14T16:16:06;5.05;;;1.30;;
68216;SDS011;55037;52.354;4.992;2023-03-14T16:18:36;7.32;;;1.38;;
68216;SDS011;55037;52.354;4.992;2023-03-14T16:21:09;4.47;;;1.13;;
68216;SDS011;55037;52.354;4.992;2023-03-14T16:23:38;9.27;;;1.25;;
68216;SDS011;55037;52.354;4.992;2023-03-14T16:26:06;6.80;;;1.80;;
68216;SDS011;55037;52.354;4.992;2023-03-14T16:28:35;4.35;;;1.27;;